Terminal Aerodrome Forecast
Issued by NWS Charleston, WV

Current Version | Previous Version | Graphics & Text | Print | Product List | Glossary On
Versions: 1 2 3 4 5 6 7 8 9 10 11 12 13 14 15 16 17 18 19 20 21 22 23 24 25
670
FTUS41 KRLX 290212 AAA
TAFBKW
TAF AMD
KBKW 290212Z 2902/2924 32005KT P6SM OVC012
     FM290400 33004KT P6SM OVC008
     FM290600 34003KT 4SM BR OVC006
     FM290800 35003KT 2SM BR OVC003
     FM291300 36004KT P6SM OVC007
     FM291500 36004KT P6SM BKN012
     FM291700 36004KT P6SM BKN020
     FM292000 36004KT P6SM SCT025=

USA.gov is the U.S. government's official web portal to all federal, state and local government web resources and services.